sensor_id;sensor_type;location;lat;lon;timestamp;P1;durP1;ratioP1;P2;durP2;ratioP2
10120;SDS011;5100;45.176;5.714;2023-04-30T00:02:01;3.80;;;2.47;;
10120;SDS011;5100;45.176;5.714;2023-04-30T00:04:27;3.95;;;2.78;;
10120;SDS011;5100;45.176;5.714;2023-04-30T00:06:53;3.15;;;2.35;;
10120;SDS011;5100;45.176;5.714;2023-04-30T00:09:19;3.80;;;2.95;;
10120;SDS011;5100;45.176;5.714;2023-04-30T00:11:46;2.50;;;2.30;;
10120;SDS011;5100;45.176;5.714;2023-04-30T00:14:12;3.28;;;2.65;;
10120;SDS011;5100;45.176;5.714;2023-04-30T00:16:38;2.67;;;2.45;;
10120;SDS011;5100;45.176;5.714;2023-04-30T00:19:04;3.17;;;2.30;;
10120;SDS011;5100;45.176;5.714;2023-04-30T00:21:30;4.10;;;2.70;;
10120;SDS011;5100;45.176;5.714;2023-04-30T00:23:56;2.42;;;2.20;;
10120;SDS011;5100;45.176;5.714;2023-04-30T00:26:25;3.08;;;2.30;;
10120;SDS011;5100;45.176;5.714;2023-04-30T00:28:51;4.57;;;2.45;;
10120;SDS011;5100;45.176;5.714;2023-04-30T00:31:17;2.75;;;2.17;;
10120;SDS011;5100;45.176;5.714;2023-04-30T00:33:43;3.42;;;2.42;;
10120;SDS011;5100;45.176;5.714;2023-04-30T00:36:09;3.92;;;2.87;;
10120;SDS011;5100;45.176;5.714;2023-04-30T00:38:35;4.57;;;2.30;;
10120;SDS011;5100;45.176;5.714;2023-04-30T00:41:02;2.45;;;2.25;;
10120;SDS011;5100;45.176;5.714;2023-04-30T00:43:28;5.05;;;3.00;;
10120;SDS011;5100;45.176;5.714;2023-04-30T00:45:54;2.42;;;2.22;;
10120;SDS011;5100;45.176;5.714;2023-04-30T00:48:22;3.08;;;2.20;;
10120;SDS011;5100;45.176;5.714;2023-04-30T00:50:48;2.83;;;2.12;;
10120;SDS011;5100;45.176;5.714;2023-04-30T00:53:14;3.70;;;2.42;;
10120;SDS011;5100;45.176;5.714;2023-04-30T00:55:41;2.22;;;2.05;;
10120;SDS011;5100;45.176;5.714;2023-04-30T00:58:08;2.40;;;2.20;;
10120;SDS011;5100;45.176;5.714;2023-04-30T01:00:35;2.72;;;2.22;;
10120;SDS011;5100;45.176;5.714;2023-04-30T01:03:01;2.15;;;1.95;;
10120;SDS011;5100;45.176;5.714;2023-04-30T01:05:28;3.10;;;2.30;;
10120;SDS011;5100;45.176;5.714;2023-04-30T01:07:55;2.17;;;2.00;;
10120;SDS011;5100;45.176;5.714;2023-04-30T01:10:22;2.62;;;2.20;;
10120;SDS011;5100;45.176;5.714;2023-04-30T01:15:41;3.15;;;2.28;;
10120;SDS011;5100;45.176;5.714;2023-04-30T01:18:22;3.53;;;2.58;;
10120;SDS011;5100;45.176;5.714;2023-04-30T01:20:58;2.15;;;1.95;;
10120;SDS011;5100;45.176;5.714;2023-04-30T01:26:28;2.30;;;2.10;;
10120;SDS011;5100;45.176;5.714;2023-04-30T01:29:13;2.33;;;1.90;;
10120;SDS011;5100;45.176;5.714;2023-04-30T01:31:43;2.00;;;1.90;;
10120;SDS011;5100;45.176;5.714;2023-04-30T01:34:09;2.00;;;1.70;;
10120;SDS011;5100;45.176;5.714;2023-04-30T01:42:40;2.08;;;1.87;;
10120;SDS011;5100;45.176;5.714;2023-04-30T01:45:31;4.37;;;2.10;;
10120;SDS011;5100;45.176;5.714;2023-04-30T01:54:04;2.87;;;2.00;;
10120;SDS011;5100;45.176;5.714;2023-04-30T01:56:39;2.10;;;1.90;;
10120;SDS011;5100;45.176;5.714;2023-04-30T01:59:10;3.30;;;2.28;;
10120;SDS011;5100;45.176;5.714;2023-04-30T02:01:39;2.85;;;1.95;;
10120;SDS011;5100;45.176;5.714;2023-04-30T02:04:06;2.08;;;1.87;;
10120;SDS011;5100;45.176;5.714;2023-04-30T02:06:32;5.55;;;2.08;;
10120;SDS011;5100;45.176;5.714;2023-04-30T02:08:58;3.95;;;2.00;;
10120;SDS011;5100;45.176;5.714;2023-04-30T02:11:30;2.75;;;1.90;;
10120;SDS011;5100;45.176;5.714;2023-04-30T02:13:56;2.42;;;2.20;;
10120;SDS011;5100;45.176;5.714;2023-04-30T02:16:22;3.28;;;2.47;;
10120;SDS011;5100;45.176;5.714;2023-04-30T02:18:49;2.87;;;2.30;;
10120;SDS011;5100;45.176;5.714;2023-04-30T02:21:15;3.70;;;2.30;;
10120;SDS011;5100;45.176;5.714;2023-04-30T02:23:41;2.62;;;2.42;;
10120;SDS011;5100;45.176;5.714;2023-04-30T02:26:07;2.92;;;2.08;;
10120;SDS011;5100;45.176;5.714;2023-04-30T02:28:33;2.35;;;2.15;;
10120;SDS011;5100;45.176;5.714;2023-04-30T02:31:00;3.12;;;2.03;;
10120;SDS011;5100;45.176;5.714;2023-04-30T02:33:26;2.10;;;1.90;;
10120;SDS011;5100;45.176;5.714;2023-04-30T02:35:52;2.53;;;2.33;;
10120;SDS011;5100;45.176;5.714;2023-04-30T02:38:19;2.20;;;2.00;;
10120;SDS011;5100;45.176;5.714;2023-04-30T02:40:45;5.37;;;2.08;;
10120;SDS011;5100;45.176;5.714;2023-04-30T02:43:11;2.22;;;2.03;;
10120;SDS011;5100;45.176;5.714;2023-04-30T02:45:37;2.10;;;2.00;;
10120;SDS011;5100;45.176;5.714;2023-04-30T02:48:04;2.20;;;2.10;;
10120;SDS011;5100;45.176;5.714;2023-04-30T02:50:31;2.37;;;1.87;;
10120;SDS011;5100;45.176;5.714;2023-04-30T02:52:57;2.37;;;2.17;;
10120;SDS011;5100;45.176;5.714;2023-04-30T02:55:23;3.40;;;2.17;;
10120;SDS011;5100;45.176;5.714;2023-04-30T02:57:49;2.00;;;1.90;;
10120;SDS011;5100;45.176;5.714;2023-04-30T03:00:15;2.37;;;2.00;;
10120;SDS011;5100;45.176;5.714;2023-04-30T03:02:42;4.12;;;2.10;;
10120;SDS011;5100;45.176;5.714;2023-04-30T03:05:09;2.70;;;2.10;;
10120;SDS011;5100;45.176;5.714;2023-04-30T03:07:35;1.90;;;1.80;;
10120;SDS011;5100;45.176;5.714;2023-04-30T03:10:02;2.17;;;2.08;;
10120;SDS011;5100;45.176;5.714;2023-04-30T03:12:28;2.37;;;2.05;;
10120;SDS011;5100;45.176;5.714;2023-04-30T03:14:54;2.47;;;2.10;;
10120;SDS011;5100;45.176;5.714;2023-04-30T03:17:20;2.97;;;2.20;;
10120;SDS011;5100;45.176;5.714;2023-04-30T03:19:46;2.87;;;2.00;;
10120;SDS011;5100;45.176;5.714;2023-04-30T03:22:12;4.37;;;2.12;;
10120;SDS011;5100;45.176;5.714;2023-04-30T03:24:38;2.85;;;2.20;;
10120;SDS011;5100;45.176;5.714;2023-04-30T03:27:04;3.65;;;2.10;;
10120;SDS011;5100;45.176;5.714;2023-04-30T03:29:30;2.65;;;2.03;;
10120;SDS011;5100;45.176;5.714;2023-04-30T03:31:57;2.55;;;2.10;;
10120;SDS011;5100;45.176;5.714;2023-04-30T03:34:23;2.28;;;2.10;;
10120;SDS011;5100;45.176;5.714;2023-04-30T03:36:49;2.55;;;2.35;;
10120;SDS011;5100;45.176;5.714;2023-04-30T03:39:15;2.42;;;2.25;;
10120;SDS011;5100;45.176;5.714;2023-04-30T03:41:41;2.70;;;2.50;;
10120;SDS011;5100;45.176;5.714;2023-04-30T03:44:07;2.37;;;2.22;;
10120;SDS011;5100;45.176;5.714;2023-04-30T03:46:40;2.28;;;2.17;;
10120;SDS011;5100;45.176;5.714;2023-04-30T03:49:09;2.40;;;2.20;;
10120;SDS011;5100;45.176;5.714;2023-04-30T03:51:36;2.45;;;2.25;;
10120;SDS011;5100;45.176;5.714;2023-04-30T03:54:06;2.70;;;2.50;;
10120;SDS011;5100;45.176;5.714;2023-04-30T03:56:33;2.20;;;2.05;;
10120;SDS011;5100;45.176;5.714;2023-04-30T03:59:00;2.65;;;2.45;;
10120;SDS011;5100;45.176;5.714;2023-04-30T04:01:28;2.65;;;2.45;;
10120;SDS011;5100;45.176;5.714;2023-04-30T04:03:55;2.60;;;2.40;;
10120;SDS011;5100;45.176;5.714;2023-04-30T04:06:22;3.53;;;2.50;;
10120;SDS011;5100;45.176;5.714;2023-04-30T04:08:47;3.03;;;2.80;;
10120;SDS011;5100;45.176;5.714;2023-04-30T04:11:14;2.42;;;2.30;;
10120;SDS011;5100;45.176;5.714;2023-04-30T04:13:40;6.87;;;2.87;;
10120;SDS011;5100;45.176;5.714;2023-04-30T04:16:06;2.95;;;2.75;;
10120;SDS011;5100;45.176;5.714;2023-04-30T04:18:33;3.55;;;3.28;;
10120;SDS011;5100;45.176;5.714;2023-04-30T04:20:59;3.42;;;2.87;;
10120;SDS011;5100;45.176;5.714;2023-04-30T04:23:28;4.20;;;2.90;;
10120;SDS011;5100;45.176;5.714;2023-04-30T04:25:55;3.58;;;3.25;;
10120;SDS011;5100;45.176;5.714;2023-04-30T04:28:22;3.35;;;3.12;;
10120;SDS011;5100;45.176;5.714;2023-04-30T04:30:48;3.20;;;3.00;;
10120;SDS011;5100;45.176;5.714;2023-04-30T04:33:14;3.40;;;3.10;;
10120;SDS011;5100;45.176;5.714;2023-04-30T04:35:42;3.33;;;3.03;;
10120;SDS011;5100;45.176;5.714;2023-04-30T04:38:08;3.97;;;3.35;;
10120;SDS011;5100;45.176;5.714;2023-04-30T04:40:35;5.57;;;3.35;;
10120;SDS011;5100;45.176;5.714;2023-04-30T04:43:01;3.47;;;3.17;;
10120;SDS011;5100;45.176;5.714;2023-04-30T04:45:28;3.70;;;3.40;;
10120;SDS011;5100;45.176;5.714;2023-04-30T04:47:54;3.75;;;3.50;;
10120;SDS011;5100;45.176;5.714;2023-04-30T04:50:20;3.35;;;3.15;;
10120;SDS011;5100;45.176;5.714;2023-04-30T04:52:47;4.12;;;3.10;;
10120;SDS011;5100;45.176;5.714;2023-04-30T04:55:13;3.62;;;3.33;;
10120;SDS011;5100;45.176;5.714;2023-04-30T04:57:40;5.18;;;3.60;;
10120;SDS011;5100;45.176;5.714;2023-04-30T05:00:06;4.10;;;3.42;;
10120;SDS011;5100;45.176;5.714;2023-04-30T05:02:34;3.40;;;3.10;;
10120;SDS011;5100;45.176;5.714;2023-04-30T05:05:00;3.87;;;3.58;;
10120;SDS011;5100;45.176;5.714;2023-04-30T05:07:26;5.25;;;3.60;;
10120;SDS011;5100;45.176;5.714;2023-04-30T05:09:53;3.70;;;3.40;;
10120;SDS011;5100;45.176;5.714;2023-04-30T05:12:19;6.70;;;3.37;;
10120;SDS011;5100;45.176;5.714;2023-04-30T05:14:45;4.30;;;3.85;;
10120;SDS011;5100;45.176;5.714;2023-04-30T05:17:12;3.87;;;3.10;;
10120;SDS011;5100;45.176;5.714;2023-04-30T05:19:38;3.22;;;3.03;;
10120;SDS011;5100;45.176;5.714;2023-04-30T05:22:04;5.18;;;3.30;;
10120;SDS011;5100;45.176;5.714;2023-04-30T05:24:31;5.57;;;3.87;;
10120;SDS011;5100;45.176;5.714;2023-04-30T05:26:57;3.45;;;3.17;;
10120;SDS011;5100;45.176;5.714;2023-04-30T05:29:23;3.95;;;3.55;;
10120;SDS011;5100;45.176;5.714;2023-04-30T05:31:49;3.60;;;3.30;;
10120;SDS011;5100;45.176;5.714;2023-04-30T05:34:15;3.53;;;3.30;;
10120;SDS011;5100;45.176;5.714;2023-04-30T05:36:41;3.60;;;3.40;;
10120;SDS011;5100;45.176;5.714;2023-04-30T05:39:07;3.95;;;3.65;;
10120;SDS011;5100;45.176;5.714;2023-04-30T05:41:34;3.90;;;3.60;;
10120;SDS011;5100;45.176;5.714;2023-04-30T05:44:00;3.80;;;3.50;;
10120;SDS011;5100;45.176;5.714;2023-04-30T05:46:27;5.40;;;3.87;;
10120;SDS011;5100;45.176;5.714;2023-04-30T05:48:53;3.92;;;3.62;;
10120;SDS011;5100;45.176;5.714;2023-04-30T05:51:20;4.50;;;4.00;;
10120;SDS011;5100;45.176;5.714;2023-04-30T05:53:46;4.18;;;3.75;;
10120;SDS011;5100;45.176;5.714;2023-04-30T05:56:12;5.00;;;3.95;;
10120;SDS011;5100;45.176;5.714;2023-04-30T05:58:38;4.22;;;3.87;;
10120;SDS011;5100;45.176;5.714;2023-04-30T06:01:04;4.55;;;4.15;;
10120;SDS011;5100;45.176;5.714;2023-04-30T06:03:31;4.12;;;3.80;;
10120;SDS011;5100;45.176;5.714;2023-04-30T06:05:57;4.30;;;3.97;;
10120;SDS011;5100;45.176;5.714;2023-04-30T06:08:22;4.75;;;4.35;;
10120;SDS011;5100;45.176;5.714;2023-04-30T06:10:49;4.90;;;4.50;;
10120;SDS011;5100;45.176;5.714;2023-04-30T06:13:15;4.35;;;3.95;;
10120;SDS011;5100;45.176;5.714;2023-04-30T06:15:41;4.18;;;3.87;;
10120;SDS011;5100;45.176;5.714;2023-04-30T06:18:07;4.00;;;3.60;;
10120;SDS011;5100;45.176;5.714;2023-04-30T06:20:34;6.57;;;3.90;;
10120;SDS011;5100;45.176;5.714;2023-04-30T06:23:00;6.10;;;3.80;;
10120;SDS011;5100;45.176;5.714;2023-04-30T06:25:28;4.28;;;3.85;;
10120;SDS011;5100;45.176;5.714;2023-04-30T06:27:54;3.92;;;3.62;;
10120;SDS011;5100;45.176;5.714;2023-04-30T06:30:20;4.60;;;4.20;;
10120;SDS011;5100;45.176;5.714;2023-04-30T06:32:46;4.53;;;4.22;;
10120;SDS011;5100;45.176;5.714;2023-04-30T06:35:12;4.60;;;4.20;;
10120;SDS011;5100;45.176;5.714;2023-04-30T06:37:38;4.93;;;4.32;;
10120;SDS011;5100;45.176;5.714;2023-04-30T06:40:06;6.05;;;4.30;;
10120;SDS011;5100;45.176;5.714;2023-04-30T06:42:32;4.85;;;4.20;;
10120;SDS011;5100;45.176;5.714;2023-04-30T06:45:00;3.83;;;3.53;;
10120;SDS011;5100;45.176;5.714;2023-04-30T06:47:32;4.97;;;4.20;;
10120;SDS011;5100;45.176;5.714;2023-04-30T06:49:59;4.00;;;3.70;;
10120;SDS011;5100;45.176;5.714;2023-04-30T06:52:25;4.32;;;3.90;;
10120;SDS011;5100;45.176;5.714;2023-04-30T06:54:52;4.47;;;4.18;;
10120;SDS011;5100;45.176;5.714;2023-04-30T06:57:17;4.47;;;4.10;;
10120;SDS011;5100;45.176;5.714;2023-04-30T06:59:43;4.53;;;4.20;;
10120;SDS011;5100;45.176;5.714;2023-04-30T07:02:11;4.68;;;4.25;;
10120;SDS011;5100;45.176;5.714;2023-04-30T07:04:36;4.85;;;4.45;;
10120;SDS011;5100;45.176;5.714;2023-04-30T07:07:02;4.60;;;4.20;;
10120;SDS011;5100;45.176;5.714;2023-04-30T07:09:30;4.85;;;4.45;;
10120;SDS011;5100;45.176;5.714;2023-04-30T07:11:58;4.87;;;4.47;;
10120;SDS011;5100;45.176;5.714;2023-04-30T07:14:25;5.45;;;4.37;;
10120;SDS011;5100;45.176;5.714;2023-04-30T07:16:51;4.65;;;4.35;;
10120;SDS011;5100;45.176;5.714;2023-04-30T07:19:18;6.20;;;4.40;;
10120;SDS011;5100;45.176;5.714;2023-04-30T07:21:44;5.53;;;4.90;;
10120;SDS011;5100;45.176;5.714;2023-04-30T07:24:11;5.50;;;5.10;;
10120;SDS011;5100;45.176;5.714;2023-04-30T07:26:37;5.28;;;4.87;;
10120;SDS011;5100;45.176;5.714;2023-04-30T07:29:03;3.78;;;3.47;;
10120;SDS011;5100;45.176;5.714;2023-04-30T07:31:29;5.03;;;4.62;;
10120;SDS011;5100;45.176;5.714;2023-04-30T07:33:55;4.80;;;4.40;;
10120;SDS011;5100;45.176;5.714;2023-04-30T07:36:21;4.60;;;4.30;;
10120;SDS011;5100;45.176;5.714;2023-04-30T07:38:47;4.95;;;4.55;;
10120;SDS011;5100;45.176;5.714;2023-04-30T07:41:13;4.65;;;4.28;;
10120;SDS011;5100;45.176;5.714;2023-04-30T07:43:39;4.90;;;4.40;;
10120;SDS011;5100;45.176;5.714;2023-04-30T07:46:06;4.62;;;4.18;;
10120;SDS011;5100;45.176;5.714;2023-04-30T07:48:32;5.15;;;4.75;;
10120;SDS011;5100;45.176;5.714;2023-04-30T07:50:58;4.62;;;4.22;;
10120;SDS011;5100;45.176;5.714;2023-04-30T07:53:24;4.62;;;4.28;;
10120;SDS011;5100;45.176;5.714;2023-04-30T07:55:50;7.30;;;4.37;;
10120;SDS011;5100;45.176;5.714;2023-04-30T07:58:16;4.50;;;4.10;;
10120;SDS011;5100;45.176;5.714;2023-04-30T08:00:43;4.90;;;4.50;;
10120;SDS011;5100;45.176;5.714;2023-04-30T08:03:09;5.45;;;4.97;;
10120;SDS011;5100;45.176;5.714;2023-04-30T08:05:35;4.82;;;4.43;;
10120;SDS011;5100;45.176;5.714;2023-04-30T08:08:01;6.05;;;5.45;;
10120;SDS011;5100;45.176;5.714;2023-04-30T08:10:28;5.30;;;4.80;;
10120;SDS011;5100;45.176;5.714;2023-04-30T08:12:56;4.80;;;4.35;;
10120;SDS011;5100;45.176;5.714;2023-04-30T08:15:22;4.53;;;4.12;;
10120;SDS011;5100;45.176;5.714;2023-04-30T08:17:48;4.85;;;4.30;;
10120;SDS011;5100;45.176;5.714;2023-04-30T08:20:15;5.10;;;4.70;;
10120;SDS011;5100;45.176;5.714;2023-04-30T08:22:42;4.72;;;4.30;;
10120;SDS011;5100;45.176;5.714;2023-04-30T08:25:09;5.25;;;4.82;;
10120;SDS011;5100;45.176;5.714;2023-04-30T08:27:39;4.43;;;4.12;;
10120;SDS011;5100;45.176;5.714;2023-04-30T08:30:05;5.10;;;4.70;;
10120;SDS011;5100;45.176;5.714;2023-04-30T08:32:35;4.75;;;4.35;;
10120;SDS011;5100;45.176;5.714;2023-04-30T08:35:03;8.60;;;5.45;;
10120;SDS011;5100;45.176;5.714;2023-04-30T08:37:29;4.72;;;4.32;;
10120;SDS011;5100;45.176;5.714;2023-04-30T08:39:56;9.02;;;4.93;;
10120;SDS011;5100;45.176;5.714;2023-04-30T08:42:24;7.50;;;4.68;;
10120;SDS011;5100;45.176;5.714;2023-04-30T08:44:54;5.05;;;4.55;;
10120;SDS011;5100;45.176;5.714;2023-04-30T08:47:20;5.00;;;4.60;;
10120;SDS011;5100;45.176;5.714;2023-04-30T08:49:48;6.00;;;4.68;;
10120;SDS011;5100;45.176;5.714;2023-04-30T08:52:14;5.80;;;5.37;;
10120;SDS011;5100;45.176;5.714;2023-04-30T08:54:41;5.10;;;4.55;;
10120;SDS011;5100;45.176;5.714;2023-04-30T08:57:09;5.45;;;4.97;;
10120;SDS011;5100;45.176;5.714;2023-04-30T08:59:35;5.43;;;5.03;;
10120;SDS011;5100;45.176;5.714;2023-04-30T09:02:01;5.18;;;4.68;;
10120;SDS011;5100;45.176;5.714;2023-04-30T09:04:27;6.65;;;5.53;;
10120;SDS011;5100;45.176;5.714;2023-04-30T09:06:53;5.07;;;4.68;;
10120;SDS011;5100;45.176;5.714;2023-04-30T09:09:30;5.80;;;5.25;;
10120;SDS011;5100;45.176;5.714;2023-04-30T09:12:09;5.35;;;4.95;;
10120;SDS011;5100;45.176;5.714;2023-04-30T09:14:37;5.35;;;4.95;;
10120;SDS011;5100;45.176;5.714;2023-04-30T09:17:05;5.10;;;4.70;;
10120;SDS011;5100;45.176;5.714;2023-04-30T09:19:31;5.75;;;5.32;;
10120;SDS011;5100;45.176;5.714;2023-04-30T09:21:57;4.97;;;4.57;;
10120;SDS011;5100;45.176;5.714;2023-04-30T09:24:23;5.45;;;4.95;;
10120;SDS011;5100;45.176;5.714;2023-04-30T09:26:50;4.90;;;4.50;;
10120;SDS011;5100;45.176;5.714;2023-04-30T09:29:16;5.22;;;4.82;;
10120;SDS011;5100;45.176;5.714;2023-04-30T09:31:43;4.60;;;4.20;;
10120;SDS011;5100;45.176;5.714;2023-04-30T09:34:12;3.85;;;3.47;;
10120;SDS011;5100;45.176;5.714;2023-04-30T09:36:54;4.60;;;4.15;;
10120;SDS011;5100;45.176;5.714;2023-04-30T09:39:20;7.10;;;5.25;;
10120;SDS011;5100;45.176;5.714;2023-04-30T09:41:47;5.32;;;4.82;;
10120;SDS011;5100;45.176;5.714;2023-04-30T09:44:25;4.65;;;4.35;;
10120;SDS011;5100;45.176;5.714;2023-04-30T09:46:52;4.93;;;4.43;;
10120;SDS011;5100;45.176;5.714;2023-04-30T09:49:20;5.68;;;5.12;;
10120;SDS011;5100;45.176;5.714;2023-04-30T09:51:55;5.93;;;5.30;;
10120;SDS011;5100;45.176;5.714;2023-04-30T09:54:30;6.12;;;5.62;;
10120;SDS011;5100;45.176;5.714;2023-04-30T09:56:57;6.40;;;5.85;;
10120;SDS011;5100;45.176;5.714;2023-04-30T09:59:32;6.40;;;5.90;;
10120;SDS011;5100;45.176;5.714;2023-04-30T10:02:07;6.87;;;6.30;;
10120;SDS011;5100;45.176;5.714;2023-04-30T10:04:34;7.57;;;5.43;;
10120;SDS011;5100;45.176;5.714;2023-04-30T10:07:07;5.40;;;4.93;;
10120;SDS011;5100;45.176;5.714;2023-04-30T10:09:57;5.40;;;4.97;;
10120;SDS011;5100;45.176;5.714;2023-04-30T10:12:33;6.15;;;5.55;;
10120;SDS011;5100;45.176;5.714;2023-04-30T10:15:12;5.55;;;5.07;;
10120;SDS011;5100;45.176;5.714;2023-04-30T10:17:42;6.07;;;5.35;;
10120;SDS011;5100;45.176;5.714;2023-04-30T10:20:12;6.10;;;5.60;;
10120;SDS011;5100;45.176;5.714;2023-04-30T10:22:39;5.87;;;5.35;;
10120;SDS011;5100;45.176;5.714;2023-04-30T10:25:06;5.85;;;5.35;;
10120;SDS011;5100;45.176;5.714;2023-04-30T10:27:38;6.90;;;6.20;;
10120;SDS011;5100;45.176;5.714;2023-04-30T10:30:05;10.70;;;5.28;;
10120;SDS011;5100;45.176;5.714;2023-04-30T10:33:17;5.68;;;5.18;;
10120;SDS011;5100;45.176;5.714;2023-04-30T10:35:49;6.40;;;5.68;;
10120;SDS011;5100;45.176;5.714;2023-04-30T10:38:27;5.68;;;5.05;;
10120;SDS011;5100;45.176;5.714;2023-04-30T10:41:00;6.43;;;5.82;;
10120;SDS011;5100;45.176;5.714;2023-04-30T10:43:29;5.12;;;4.62;;
10120;SDS011;5100;45.176;5.714;2023-04-30T10:45:58;7.00;;;5.32;;
10120;SDS011;5100;45.176;5.714;2023-04-30T10:48:25;6.75;;;5.80;;
10120;SDS011;5100;45.176;5.714;2023-04-30T10:50:52;6.10;;;5.60;;
10120;SDS011;5100;45.176;5.714;2023-04-30T10:53:21;6.22;;;5.72;;
10120;SDS011;5100;45.176;5.714;2023-04-30T10:56:00;6.12;;;5.60;;
10120;SDS011;5100;45.176;5.714;2023-04-30T10:58:36;5.40;;;5.00;;
10120;SDS011;5100;45.176;5.714;2023-04-30T11:01:08;5.53;;;5.10;;
10120;SDS011;5100;45.176;5.714;2023-04-30T11:03:41;8.88;;;5.70;;
10120;SDS011;5100;45.176;5.714;2023-04-30T11:06:47;5.60;;;5.10;;
10120;SDS011;5100;45.176;5.714;2023-04-30T11:09:15;5.90;;;5.40;;
10120;SDS011;5100;45.176;5.714;2023-04-30T11:11:45;5.95;;;5.45;;
10120;SDS011;5100;45.176;5.714;2023-04-30T11:14:19;5.55;;;5.15;;
10120;SDS011;5100;45.176;5.714;2023-04-30T11:16:48;5.87;;;5.30;;
10120;SDS011;5100;45.176;5.714;2023-04-30T11:19:17;5.78;;;5.18;;
10120;SDS011;5100;45.176;5.714;2023-04-30T11:24:49;5.70;;;5.28;;
10120;SDS011;5100;45.176;5.714;2023-04-30T11:27:22;6.28;;;5.62;;
10120;SDS011;5100;45.176;5.714;2023-04-30T11:29:50;6.22;;;5.45;;
10120;SDS011;5100;45.176;5.714;2023-04-30T11:32:17;6.10;;;5.60;;
10120;SDS011;5100;45.176;5.714;2023-04-30T11:34:44;6.95;;;6.30;;
10120;SDS011;5100;45.176;5.714;2023-04-30T11:37:12;6.18;;;5.40;;
10120;SDS011;5100;45.176;5.714;2023-04-30T11:39:40;5.87;;;5.37;;
10120;SDS011;5100;45.176;5.714;2023-04-30T11:42:07;6.00;;;5.43;;
10120;SDS011;5100;45.176;5.714;2023-04-30T11:44:34;6.65;;;6.05;;
10120;SDS011;5100;45.176;5.714;2023-04-30T11:47:00;6.12;;;5.62;;
10120;SDS011;5100;45.176;5.714;2023-04-30T11:49:26;6.82;;;5.37;;
10120;SDS011;5100;45.176;5.714;2023-04-30T11:51:52;6.40;;;5.90;;
10120;SDS011;5100;45.176;5.714;2023-04-30T11:54:18;7.18;;;6.57;;
10120;SDS011;5100;45.176;5.714;2023-04-30T11:56:45;6.75;;;6.25;;
10120;SDS011;5100;45.176;5.714;2023-04-30T11:59:13;6.62;;;6.03;;
10120;SDS011;5100;45.176;5.714;2023-04-30T12:01:40;6.70;;;6.20;;
10120;SDS011;5100;45.176;5.714;2023-04-30T12:04:07;7.30;;;6.43;;
10120;SDS011;5100;45.176;5.714;2023-04-30T12:06:33;7.07;;;6.40;;
10120;SDS011;5100;45.176;5.714;2023-04-30T12:09:00;6.60;;;6.05;;
10120;SDS011;5100;45.176;5.714;2023-04-30T12:11:30;8.30;;;7.60;;
10120;SDS011;5100;45.176;5.714;2023-04-30T12:14:02;7.72;;;7.03;;
10120;SDS011;5100;45.176;5.714;2023-04-30T12:16:40;7.40;;;6.62;;
10120;SDS011;5100;45.176;5.714;2023-04-30T12:19:19;7.22;;;6.15;;
10120;SDS011;5100;45.176;5.714;2023-04-30T12:21:47;7.43;;;6.78;;
10120;SDS011;5100;45.176;5.714;2023-04-30T12:24:14;8.93;;;7.30;;
10120;SDS011;5100;45.176;5.714;2023-04-30T12:26:42;8.63;;;7.93;;
10120;SDS011;5100;45.176;5.714;2023-04-30T12:31:36;9.68;;;8.68;;
10120;SDS011;5100;45.176;5.714;2023-04-30T12:34:06;7.72;;;7.03;;
10120;SDS011;5100;45.176;5.714;2023-04-30T12:36:33;8.30;;;7.60;;
10120;SDS011;5100;45.176;5.714;2023-04-30T12:39:06;8.77;;;7.97;;
10120;SDS011;5100;45.176;5.714;2023-04-30T12:41:39;8.60;;;7.87;;
10120;SDS011;5100;45.176;5.714;2023-04-30T12:44:16;8.35;;;7.65;;
10120;SDS011;5100;45.176;5.714;2023-04-30T12:46:51;7.85;;;7.25;;
10120;SDS011;5100;45.176;5.714;2023-04-30T12:49:32;7.82;;;7.03;;
10120;SDS011;5100;45.176;5.714;2023-04-30T12:54:27;9.40;;;8.50;;
10120;SDS011;5100;45.176;5.714;2023-04-30T12:56:58;7.93;;;7.32;;
10120;SDS011;5100;45.176;5.714;2023-04-30T12:59:32;8.88;;;8.02;;
10120;SDS011;5100;45.176;5.714;2023-04-30T13:02:10;8.50;;;7.70;;
10120;SDS011;5100;45.176;5.714;2023-04-30T13:04:39;8.10;;;7.30;;
10120;SDS011;5100;45.176;5.714;2023-04-30T13:07:07;9.15;;;8.38;;
10120;SDS011;5100;45.176;5.714;2023-04-30T13:09:33;8.25;;;7.53;;
10120;SDS011;5100;45.176;5.714;2023-04-30T13:12:01;8.00;;;7.30;;
10120;SDS011;5100;45.176;5.714;2023-04-30T13:14:27;8.82;;;8.07;;
10120;SDS011;5100;45.176;5.714;2023-04-30T13:16:54;8.55;;;6.97;;
10120;SDS011;5100;45.176;5.714;2023-04-30T13:19:20;7.07;;;6.55;;
10120;SDS011;5100;45.176;5.714;2023-04-30T13:21:46;9.02;;;8.00;;
10120;SDS011;5100;45.176;5.714;2023-04-30T13:24:12;7.37;;;6.78;;
10120;SDS011;5100;45.176;5.714;2023-04-30T13:26:39;7.45;;;6.85;;
10120;SDS011;5100;45.176;5.714;2023-04-30T13:29:05;7.90;;;7.20;;
10120;SDS011;5100;45.176;5.714;2023-04-30T13:31:31;7.43;;;6.53;;
10120;SDS011;5100;45.176;5.714;2023-04-30T13:33:57;7.75;;;7.00;;
10120;SDS011;5100;45.176;5.714;2023-04-30T13:36:23;10.05;;;7.03;;
10120;SDS011;5100;45.176;5.714;2023-04-30T13:38:49;8.52;;;6.97;;
10120;SDS011;5100;45.176;5.714;2023-04-30T13:41:16;8.48;;;7.70;;
10120;SDS011;5100;45.176;5.714;2023-04-30T13:43:42;6.53;;;5.93;;
10120;SDS011;5100;45.176;5.714;2023-04-30T13:46:09;7.57;;;6.93;;
10120;SDS011;5100;45.176;5.714;2023-04-30T13:48:35;6.80;;;6.25;;
10120;SDS011;5100;45.176;5.714;2023-04-30T13:51:01;7.47;;;6.87;;
10120;SDS011;5100;45.176;5.714;2023-04-30T13:53:27;7.12;;;6.53;;
10120;SDS011;5100;45.176;5.714;2023-04-30T13:55:54;7.78;;;6.97;;
10120;SDS011;5100;45.176;5.714;2023-04-30T13:58:20;6.68;;;6.18;;
10120;SDS011;5100;45.176;5.714;2023-04-30T14:00:46;7.25;;;6.65;;
10120;SDS011;5100;45.176;5.714;2023-04-30T14:03:13;7.32;;;6.72;;
10120;SDS011;5100;45.176;5.714;2023-04-30T14:05:39;6.87;;;6.35;;
10120;SDS011;5100;45.176;5.714;2023-04-30T14:08:05;7.28;;;6.57;;
10120;SDS011;5100;45.176;5.714;2023-04-30T14:10:31;6.43;;;5.93;;
10120;SDS011;5100;45.176;5.714;2023-04-30T14:12:57;7.40;;;6.70;;
10120;SDS011;5100;45.176;5.714;2023-04-30T14:15:23;6.68;;;6.07;;
10120;SDS011;5100;45.176;5.714;2023-04-30T14:17:50;7.10;;;6.43;;
10120;SDS011;5100;45.176;5.714;2023-04-30T14:20:17;6.97;;;6.28;;
10120;SDS011;5100;45.176;5.714;2023-04-30T14:22:43;6.35;;;5.80;;
10120;SDS011;5100;45.176;5.714;2023-04-30T14:25:09;7.00;;;6.40;;
10120;SDS011;5100;45.176;5.714;2023-04-30T14:27:36;10.40;;;6.90;;
10120;SDS011;5100;45.176;5.714;2023-04-30T14:30:02;8.05;;;6.57;;
10120;SDS011;5100;45.176;5.714;2023-04-30T14:32:28;6.35;;;5.85;;
10120;SDS011;5100;45.176;5.714;2023-04-30T14:34:54;7.12;;;6.50;;
10120;SDS011;5100;45.176;5.714;2023-04-30T14:37:20;8.15;;;6.93;;
10120;SDS011;5100;45.176;5.714;2023-04-30T14:39:47;7.03;;;6.32;;
10120;SDS011;5100;45.176;5.714;2023-04-30T14:42:14;8.82;;;6.40;;
10120;SDS011;5100;45.176;5.714;2023-04-30T14:44:40;6.95;;;6.15;;
10120;SDS011;5100;45.176;5.714;2023-04-30T14:47:06;7.47;;;6.28;;
10120;SDS011;5100;45.176;5.714;2023-04-30T14:49:32;7.75;;;6.93;;
10120;SDS011;5100;45.176;5.714;2023-04-30T14:51:59;6.85;;;6.30;;
10120;SDS011;5100;45.176;5.714;2023-04-30T14:54:25;7.22;;;6.55;;
10120;SDS011;5100;45.176;5.714;2023-04-30T14:56:51;6.93;;;6.32;;
10120;SDS011;5100;45.176;5.714;2023-04-30T14:59:17;7.50;;;6.80;;
10120;SDS011;5100;45.176;5.714;2023-04-30T15:01:43;7.28;;;6.68;;
10120;SDS011;5100;45.176;5.714;2023-04-30T15:04:09;7.93;;;7.12;;
10120;SDS011;5100;45.176;5.714;2023-04-30T15:06:35;7.07;;;6.37;;
10120;SDS011;5100;45.176;5.714;2023-04-30T15:09:01;6.65;;;6.15;;
10120;SDS011;5100;45.176;5.714;2023-04-30T15:11:28;7.03;;;6.43;;
10120;SDS011;5100;45.176;5.714;2023-04-30T15:13:54;6.80;;;6.20;;
10120;SDS011;5100;45.176;5.714;2023-04-30T15:16:20;6.97;;;6.37;;
10120;SDS011;5100;45.176;5.714;2023-04-30T15:18:46;6.72;;;6.22;;
10120;SDS011;5100;45.176;5.714;2023-04-30T15:21:13;6.78;;;6.18;;
10120;SDS011;5100;45.176;5.714;2023-04-30T15:23:39;6.80;;;6.20;;
10120;SDS011;5100;45.176;5.714;2023-04-30T15:26:05;6.47;;;5.87;;
10120;SDS011;5100;45.176;5.714;2023-04-30T15:28:32;9.85;;;6.40;;
10120;SDS011;5100;45.176;5.714;2023-04-30T15:30:58;6.18;;;5.68;;